Time,TemperatureF,DewpointF,PressureIn,WindDirection,WindDirectionDegrees,WindSpeedMPH,WindSpeedGustMPH,Humidity,HourlyPrecipIn,Conditions,Clouds,dailyrainin,SoftwareType,DateUTC
2013-05-26 00:01:00,48.7,41.5,30.21,East,90,6.2,9.2,76,0.00,RA,OVC,0.00,WeatherDisplay:10.37,2013-05-26 05:01:00,
2013-05-26 00:06:00,48.6,41.3,30.21,ESE,112,9.0,9.0,76,0.00,RA,OVC,0.00,WeatherDisplay:10.37,2013-05-26 05:06:00,
2013-05-26 00:11:00,48.6,41.3,30.21,ENE,68,8.5,8.5,76,0.00,,OVC,0.00,WeatherDisplay:10.37,2013-05-26 05:11:00,
2013-05-26 00:16:00,48.6,41.3,30.20,ESE,112,8.5,9.2,76,0.00,,OVC,0.00,WeatherDisplay:10.37,2013-05-26 05:16:00,
2013-05-26 00:21:00,48.4,41.2,30.20,East,90,8.5,9.2,76,0.00,,OVC,0.00,WeatherDisplay:10.37,2013-05-26 05:21:00,
2013-05-26 00:26:00,48.2,41.0,30.19,East,90,8.5,10.4,76,0.00,,OVC,0.00,WeatherDisplay:10.37,2013-05-26 05:26:00,
2013-05-26 00:31:00,48.2,40.6,30.20,ESE,112,7.6,7.6,75,0.00,,OVC,0.00,WeatherDisplay:10.37,2013-05-26 05:31:00,
2013-05-26 00:36:00,48.2,40.6,30.20,East,90,6.9,6.9,75,0.00,,OVC,0.00,WeatherDisplay:10.37,2013-05-26 05:36:00,
2013-05-26 00:41:00,48.2,40.6,30.19,ESE,112,7.4,9.2,75,0.00,,OVC,0.00,WeatherDisplay:10.37,2013-05-26 05:41:00,
2013-05-26 00:46:00,48.0,40.5,30.20,East,90,8.3,8.3,75,0.00,,OVC,0.00,WeatherDisplay:10.37,2013-05-26 05:46:00,
2013-05-26 00:51:00,48.0,40.5,30.20,ESE,112,6.4,8.1,75,0.00,,OVC,0.00,WeatherDisplay:10.37,2013-05-26 05:51:00,
2013-05-26 00:56:00,48.0,40.5,30.19,East,90,8.1,8.1,75,0.00,,OVC,0.00,WeatherDisplay:10.37,2013-05-26 05:56:00,
2013-05-26 01:01:00,48.0,40.5,30.19,East,90,6.0,8.1,75,0.00,,OVC,0.00,WeatherDisplay:10.37,2013-05-26 06:01:00,
2013-05-26 01:06:00,48.0,40.5,30.19,East,90,10.0,10.0,75,0.00,,OVC,0.00,WeatherDisplay:10.37,2013-05-26 06:06:00,
2013-05-26 01:11:00,48.0,40.5,30.19,ESE,112,6.4,6.4,75,0.00,,OVC,0.00,WeatherDisplay:10.37,2013-05-26 06:11:00,
2013-05-26 01:16:00,48.0,40.5,30.19,East,90,6.2,6.2,75,0.00,,OVC,0.00,WeatherDisplay:10.37,2013-05-26 06:16:00,
2013-05-26 01:21:00,47.8,40.3,30.19,ENE,68,6.2,6.2,75,0.00,,OVC,0.00,WeatherDisplay:10.37,2013-05-26 06:21:00,
2013-05-26 01:26:00,47.8,40.3,30.19,ESE,112,7.1,7.1,75,0.00,,OVC,0.00,WeatherDisplay:10.37,2013-05-26 06:26:00,
2013-05-26 01:31:00,47.8,40.3,30.19,East,90,7.8,7.8,75,0.00,,OVC,0.00,WeatherDisplay:10.37,2013-05-26 06:31:00,
2013-05-26 01:36:00,47.8,40.3,30.20,East,90,6.9,9.2,75,0.00,,OVC,0.00,WeatherDisplay:10.37,2013-05-26 06:36:00,
2013-05-26 01:41:00,47.8,40.3,30.19,East,90,9.2,9.2,75,0.00,,OVC,0.00,WeatherDisplay:10.37,2013-05-26 06:41:00,
2013-05-26 01:46:00,47.8,40.3,30.18,ESE,112,7.6,7.6,75,0.00,,OVC,0.00,WeatherDisplay:10.37,2013-05-26 06:46:00,
2013-05-26 01:51:00,47.8,40.3,30.18,ESE,112,5.2,8.1,75,0.00,,OVC,0.00,WeatherDisplay:10.37,2013-05-26 06:51:00,
2013-05-26 01:56:00,47.8,40.3,30.18,SE,135,6.0,8.1,75,0.00,,OVC,0.00,WeatherDisplay:10.37,2013-05-26 06:56:00,
2013-05-26 02:02:00,47.8,40.3,30.18,East,90,7.4,7.4,75,0.00,,OVC,0.00,WeatherDisplay:10.37,2013-05-26 07:02:00,
2013-05-26 02:07:00,47.7,40.1,30.18,ESE,112,8.1,8.1,75,0.00,,OVC,0.00,WeatherDisplay:10.37,2013-05-26 07:07:00,
2013-05-26 02:12:00,47.7,40.1,30.18,East,90,4.9,4.9,75,0.00,,OVC,0.00,WeatherDisplay:10.37,2013-05-26 07:12:00,
2013-05-26 02:17:00,47.5,39.9,30.18,ESE,112,4.0,5.8,75,0.00,,OVC,0.00,WeatherDisplay:10.37,2013-05-26 07:17:00,
2013-05-26 02:22:00,47.5,39.9,30.18,East,90,4.9,5.8,75,0.00,,OVC,0.00,WeatherDisplay:10.37,2013-05-26 07:22:00,
2013-05-26 02:27:00,47.5,39.9,30.17,NE,45,3.8,5.8,75,0.00,,OVC,0.00,WeatherDisplay:10.37,2013-05-26 07:27:00,
2013-05-26 02:32:00,47.5,39.9,30.17,East,90,7.1,7.1,75,0.00,,OVC,0.00,WeatherDisplay:10.37,2013-05-26 07:32:00,
2013-05-26 02:37:00,47.5,39.6,30.17,ESE,112,5.4,5.8,74,0.00,,OVC,0.00,WeatherDisplay:10.37,2013-05-26 07:37:00,
2013-05-26 02:42:00,47.3,39.4,30.17,East,90,3.8,6.9,74,0.00,,OVC,0.00,WeatherDisplay:10.37,2013-05-26 07:42:00,
2013-05-26 02:47:00,47.3,39.4,30.17,ESE,112,4.9,5.8,74,0.00,,OVC,0.00,WeatherDisplay:10.37,2013-05-26 07:47:00,
2013-05-26 02:52:00,47.1,39.3,30.17,ESE,112,6.0,6.9,74,0.00,,OVC,0.00,WeatherDisplay:10.37,2013-05-26 07:52:00,
2013-05-26 02:57:00,47.1,39.3,30.17,ESE,112,4.7,8.1,74,0.00,,OVC,0.00,WeatherDisplay:10.37,2013-05-26 07:57:00,
2013-05-26 03:02:00,47.1,39.3,30.17,ESE,112,7.6,8.1,74,0.00,,OVC,0.00,WeatherDisplay:10.37,2013-05-26 08:02:00,
2013-05-26 03:07:00,47.1,39.6,30.17,East,90,4.7,6.9,75,0.00,,OVC,0.00,WeatherDisplay:10.37,2013-05-26 08:07:00,
2013-05-26 03:12:00,47.1,39.6,30.17,East,90,5.6,6.9,75,0.00,,OVC,0.00,WeatherDisplay:10.37,2013-05-26 08:12:00,
2013-05-26 03:17:00,47.1,39.6,30.17,East,90,4.9,5.8,75,0.00,,OVC,0.00,WeatherDisplay:10.37,2013-05-26 08:17:00,
2013-05-26 03:22:00,47.1,39.6,30.17,ESE,112,6.7,6.9,75,0.00,,OVC,0.00,WeatherDisplay:10.37,2013-05-26 08:22:00,
2013-05-26 03:27:00,47.1,39.6,30.17,ESE,112,6.0,9.2,75,0.00,,OVC,0.00,WeatherDisplay:10.37,2013-05-26 08:27:00,
2013-05-26 03:32:00,47.1,39.9,30.17,East,90,7.4,9.2,76,0.00,,OVC,0.00,WeatherDisplay:10.37,2013-05-26 08:32:00,
2013-05-26 03:37:00,47.1,39.9,30.17,ESE,112,7.8,9.2,76,0.00,,OVC,0.00,WeatherDisplay:10.37,2013-05-26 08:37:00,
2013-05-26 03:42:00,47.1,39.9,30.17,ESE,112,5.6,5.8,76,0.00,,OVC,0.00,WeatherDisplay:10.37,2013-05-26 08:42:00,
2013-05-26 03:47:00,47.1,39.9,30.18,East,90,5.2,8.1,76,0.00,,OVC,0.00,WeatherDisplay:10.37,2013-05-26 08:47:00,
2013-05-26 03:52:00,47.1,40.3,30.18,ESE,112,5.9,5.9,77,0.00,,OVC,0.00,WeatherDisplay:10.37,2013-05-26 08:52:00,
2013-05-26 03:57:00,47.1,40.3,30.17,ESE,112,6.7,6.9,77,0.00,,OVC,0.00,WeatherDisplay:10.37,2013-05-26 08:57:00,
2013-05-26 04:02:00,47.1,40.3,30.17,NE,45,5.2,6.9,77,0.00,,OVC,0.00,WeatherDisplay:10.37,2013-05-26 09:02:00,
2013-05-26 04:07:00,47.1,40.3,30.16,ENE,68,6.4,8.1,77,0.00,,OVC,0.00,WeatherDisplay:10.37,2013-05-26 09:07:00,
2013-05-26 04:12:00,47.1,40.3,30.16,ESE,112,9.2,9.2,77,0.00,,OVC,0.00,WeatherDisplay:10.37,2013-05-26 09:12:00,
2013-05-26 04:17:00,47.1,40.3,30.15,ESE,112,8.5,10.4,77,0.00,,OVC,0.00,WeatherDisplay:10.37,2013-05-26 09:17:00,
2013-05-26 04:22:00,47.1,40.3,30.15,ESE,112,6.9,10.4,77,0.00,,OVC,0.00,WeatherDisplay:10.37,2013-05-26 09:22:00,
2013-05-26 04:27:00,47.1,40.6,30.15,ESE,112,9.2,12.7,78,0.00,,OVC,0.00,WeatherDisplay:10.37,2013-05-26 09:27:00,
2013-05-26 04:32:00,47.3,40.8,30.15,East,90,7.8,10.4,78,0.00,,OVC,0.00,WeatherDisplay:10.37,2013-05-26 09:32:00,
2013-05-26 04:37:00,47.3,40.8,30.15,East,90,6.4,10.4,78,0.00,,OVC,0.00,WeatherDisplay:10.37,2013-05-26 09:37:00,
2013-05-26 04:42:00,47.5,41.0,30.15,East,90,11.8,11.8,78,0.00,,OVC,0.00,WeatherDisplay:10.37,2013-05-26 09:42:00,
2013-05-26 04:47:00,47.7,41.1,30.16,SE,135,10.5,10.5,78,0.00,,OVC,0.00,WeatherDisplay:10.37,2013-05-26 09:47:00,
2013-05-26 04:52:00,47.8,41.3,30.16,ESE,112,11.6,12.7,78,0.00,,OVC,0.00,WeatherDisplay:10.37,2013-05-26 09:52:00,
2013-05-26 04:57:00,47.8,41.3,30.16,ESE,112,9.9,11.5,78,0.00,,OVC,0.00,WeatherDisplay:10.37,2013-05-26 09:57:00,
2013-05-26 05:02:00,48.0,41.5,30.16,ESE,112,9.9,9.9,78,0.00,,OVC,0.00,WeatherDisplay:10.37,2013-05-26 10:02:00,
2013-05-26 05:07:00,48.0,41.5,30.15,ESE,112,11.8,11.8,78,0.00,,OVC,0.00,WeatherDisplay:10.37,2013-05-26 10:07:00,
2013-05-26 05:12:00,48.2,41.7,30.15,East,90,8.5,12.7,78,0.00,,OVC,0.00,WeatherDisplay:10.37,2013-05-26 10:12:00,
2013-05-26 05:17:00,48.0,41.5,30.15,ESE,112,11.4,11.4,78,0.00,,OVC,0.00,WeatherDisplay:10.37,2013-05-26 10:17:00,
2013-05-26 05:22:00,48.2,41.7,30.15,ESE,112,9.2,12.7,78,0.00,,OVC,0.00,WeatherDisplay:10.37,2013-05-26 10:22:00,
2013-05-26 05:27:00,48.2,41.7,30.16,SE,135,8.3,12.7,78,0.00,,OVC,0.00,WeatherDisplay:10.37,2013-05-26 10:27:00,
2013-05-26 05:32:00,48.0,41.5,30.15,ESE,112,10.9,10.9,78,0.00,,OVC,0.00,WeatherDisplay:10.37,2013-05-26 10:32:00,
2013-05-26 05:37:00,47.8,41.3,30.15,East,90,9.9,10.4,78,0.00,,OVC,0.00,WeatherDisplay:10.37,2013-05-26 10:37:00,
2013-05-26 05:42:00,47.8,41.3,30.14,ESE,112,9.4,10.4,78,0.00,,OVC,0.00,WeatherDisplay:10.37,2013-05-26 10:42:00,
2013-05-26 05:47:00,47.8,41.3,30.15,ESE,112,11.4,11.4,78,0.00,,OVC,0.00,WeatherDisplay:10.37,2013-05-26 10:47:00,
2013-05-26 05:52:00,48.0,41.5,30.15,ENE,68,8.7,11.5,78,0.00,,OVC,0.00,WeatherDisplay:10.37,2013-05-26 10:52:00,
2013-05-26 05:57:00,48.0,41.5,30.15,ESE,112,9.2,9.2,78,0.00,,OVC,0.00,WeatherDisplay:10.37,2013-05-26 10:57:00,
2013-05-26 06:02:00,48.0,41.5,30.15,ESE,112,9.9,10.4,78,0.00,,OVC,0.00,WeatherDisplay:10.37,2013-05-26 11:02:00,
2013-05-26 06:07:00,48.0,41.5,30.16,East,90,8.5,8.5,78,0.00,,OVC,0.00,WeatherDisplay:10.37,2013-05-26 11:07:00,
2013-05-26 06:12:00,48.0,41.5,30.16,East,90,8.5,9.2,78,0.00,,OVC,0.00,WeatherDisplay:10.37,2013-05-26 11:12:00,
2013-05-26 06:17:00,48.0,41.5,30.16,ESE,112,8.5,9.2,78,0.00,,OVC,0.00,WeatherDisplay:10.37,2013-05-26 11:17:00,
2013-05-26 06:22:00,48.0,41.5,30.17,ESE,112,7.8,11.5,78,0.00,,OVC,0.00,WeatherDisplay:10.37,2013-05-26 11:22:00,
2013-05-26 06:27:00,48.0,41.5,30.17,ESE,112,8.3,11.5,78,0.00,,OVC,0.00,WeatherDisplay:10.37,2013-05-26 11:27:00,
2013-05-26 06:32:00,48.0,41.5,30.17,ESE,112,9.9,11.5,78,0.00,,OVC,0.00,WeatherDisplay:10.37,2013-05-26 11:32:00,
2013-05-26 06:37:00,47.8,41.0,30.17,ESE,112,11.2,11.2,77,0.01,RA,OVC,0.01,WeatherDisplay:10.37,2013-05-26 11:37:00,
2013-05-26 06:42:00,47.5,40.6,30.17,East,90,9.4,10.4,77,0.02,RA,OVC,0.02,WeatherDisplay:10.37,2013-05-26 11:42:00,
2013-05-26 06:47:00,47.5,40.6,30.17,ESE,112,9.4,11.5,77,0.02,RA,OVC,0.02,WeatherDisplay:10.37,2013-05-26 11:47:00,
2013-05-26 06:52:00,47.5,40.6,30.17,East,90,10.2,10.4,77,0.03,RA,OVC,0.03,WeatherDisplay:10.37,2013-05-26 11:52:00,
2013-05-26 06:57:00,47.3,40.5,30.17,East,90,10.0,11.5,77,0.03,RA,OVC,0.03,WeatherDisplay:10.37,2013-05-26 11:57:00,
2013-05-26 07:02:00,47.5,40.6,30.18,ESE,112,11.4,11.5,77,0.03,,OVC,0.03,WeatherDisplay:10.37,2013-05-26 12:02:00,
2013-05-26 07:07:00,47.5,40.6,30.17,East,90,9.0,9.2,77,0.03,,OVC,0.03,WeatherDisplay:10.37,2013-05-26 12:07:00,
2013-05-26 07:12:00,47.5,40.6,30.17,ESE,112,9.2,10.4,77,0.03,,OVC,0.03,WeatherDisplay:10.37,2013-05-26 12:12:00,
2013-05-26 07:17:00,47.7,40.5,30.18,ESE,112,7.1,9.2,76,0.03,,OVC,0.03,WeatherDisplay:10.37,2013-05-26 12:17:00,
2013-05-26 07:22:00,47.7,40.8,30.18,ESE,112,10.5,10.5,77,0.03,,OVC,0.03,WeatherDisplay:10.37,2013-05-26 12:22:00,
2013-05-26 07:27:00,47.8,41.0,30.18,East,90,6.2,6.2,77,0.03,,OVC,0.03,WeatherDisplay:10.37,2013-05-26 12:27:00,
2013-05-26 07:32:00,47.8,41.0,30.18,East,90,6.9,6.9,77,0.03,,OVC,0.03,WeatherDisplay:10.37,2013-05-26 12:32:00,
2013-05-26 07:37:00,47.8,41.0,30.19,East,90,4.9,5.8,77,0.02,,OVC,0.03,WeatherDisplay:10.37,2013-05-26 12:37:00,
2013-05-26 07:42:00,47.8,41.0,30.19,ENE,68,4.0,9.2,77,0.01,,OVC,0.03,WeatherDisplay:10.37,2013-05-26 12:42:00,
2013-05-26 07:48:00,47.8,40.6,30.19,East,90,5.6,5.8,76,0.01,,OVC,0.03,WeatherDisplay:10.37,2013-05-26 12:48:00,
2013-05-26 07:53:00,47.8,40.6,30.19,East,90,4.3,6.9,76,0.00,,OVC,0.03,WeatherDisplay:10.37,2013-05-26 12:53:00,
2013-05-26 07:58:00,47.7,40.5,30.19,SE,135,7.6,7.6,76,0.00,,OVC,0.03,WeatherDisplay:10.37,2013-05-26 12:58:00,
2013-05-26 08:03:00,47.7,40.5,30.20,ENE,68,3.3,5.8,76,0.01,RA,OVC,0.04,WeatherDisplay:10.37,2013-05-26 13:03:00,
2013-05-26 08:08:00,47.5,39.9,30.20,ENE,68,3.8,4.6,75,0.01,RA,OVC,0.04,WeatherDisplay:10.37,2013-05-26 13:08:00,
2013-05-26 08:13:00,47.3,39.1,30.19,ENE,68,10.5,10.5,73,0.02,RA,OVC,0.05,WeatherDisplay:10.37,2013-05-26 13:13:00,
2013-05-26 08:18:00,47.1,39.3,30.19,East,90,11.8,13.8,74,0.02,RA,OVC,0.06,WeatherDisplay:10.37,2013-05-26 13:18:00,
2013-05-26 08:23:00,47.1,39.6,30.19,East,90,9.0,11.5,75,0.04,RA,OVC,0.07,WeatherDisplay:10.37,2013-05-26 13:23:00,
2013-05-26 08:28:00,47.1,39.6,30.20,East,90,5.9,5.9,75,0.05,RA,OVC,0.09,WeatherDisplay:10.37,2013-05-26 13:28:00,
2013-05-26 08:33:00,46.8,38.9,30.20,ENE,68,5.4,5.8,74,0.07,RA,OVC,0.11,WeatherDisplay:10.37,2013-05-26 13:33:00,
2013-05-26 08:38:00,46.6,38.0,30.19,NE,45,8.3,10.4,72,0.09,RA,OVC,0.13,WeatherDisplay:10.37,2013-05-26 13:38:00,
2013-05-26 08:43:00,46.4,37.1,30.18,NE,45,12.8,12.8,70,0.11,RA,OVC,0.15,WeatherDisplay:10.37,2013-05-26 13:43:00,
2013-05-26 08:48:00,46.4,37.1,30.19,ENE,68,15.2,15.2,70,0.15,RA,OVC,0.17,WeatherDisplay:10.37,2013-05-26 13:48:00,
2013-05-26 08:53:00,46.4,37.1,30.19,East,90,9.0,13.8,70,0.17,RA,OVC,0.20,WeatherDisplay:10.37,2013-05-26 13:53:00,
2013-05-26 08:58:00,46.4,37.1,30.21,East,90,9.2,9.2,70,0.19,RA,OVC,0.23,WeatherDisplay:10.37,2013-05-26 13:58:00,
2013-05-26 09:03:00,46.2,37.0,30.22,ENE,68,11.4,13.8,70,0.21,RA,OVC,0.25,WeatherDisplay:10.37,2013-05-26 14:03:00,
2013-05-26 09:08:00,46.2,37.3,30.22,ENE,68,9.7,13.8,71,0.24,RA,OVC,0.28,WeatherDisplay:10.37,2013-05-26 14:08:00,
2013-05-26 09:13:00,46.0,37.2,30.21,ENE,68,11.4,11.5,71,0.26,RA,OVC,0.31,WeatherDisplay:10.37,2013-05-26 14:13:00,
2013-05-26 09:18:00,46.0,36.8,30.21,East,90,5.4,8.1,70,0.27,RA,OVC,0.33,WeatherDisplay:10.37,2013-05-26 14:18:00,
2013-05-26 09:23:00,46.0,36.4,30.20,East,90,5.4,5.8,69,0.28,RA,OVC,0.35,WeatherDisplay:10.37,2013-05-26 14:23:00,
2013-05-26 09:28:00,46.0,35.7,30.21,East,90,5.4,5.8,67,0.29,RA,OVC,0.37,WeatherDisplay:10.37,2013-05-26 14:28:00,
2013-05-26 09:33:00,46.2,36.2,30.21,East,90,5.4,5.8,68,0.29,RA,OVC,0.39,WeatherDisplay:10.37,2013-05-26 14:33:00,
2013-05-26 09:38:00,46.2,36.2,30.21,East,90,5.4,5.8,68,0.28,RA,OVC,0.41,WeatherDisplay:10.37,2013-05-26 14:38:00,
2013-05-26 09:43:00,46.0,36.4,30.21,East,90,5.4,5.8,69,0.28,RA,OVC,0.43,WeatherDisplay:10.37,2013-05-26 14:43:00,
2013-05-26 09:48:00,45.9,35.9,30.21,East,90,5.4,5.8,68,0.28,RA,OVC,0.46,WeatherDisplay:10.37,2013-05-26 14:48:00,
2013-05-26 09:53:00,45.7,35.7,30.21,East,90,5.4,5.8,68,0.28,RA,OVC,0.48,WeatherDisplay:10.37,2013-05-26 14:53:00,
2013-05-26 09:58:00,45.7,35.3,30.21,East,90,5.4,5.8,67,0.26,RA,OVC,0.49,WeatherDisplay:10.37,2013-05-26 14:58:00,
2013-05-26 10:03:00,45.7,35.0,30.20,East,90,5.4,5.8,66,0.25,RA,OVC,0.52,WeatherDisplay:10.37,2013-05-26 15:03:00,
2013-05-26 10:08:00,45.7,35.0,30.20,East,90,5.4,5.8,66,0.24,RA,OVC,0.53,WeatherDisplay:10.37,2013-05-26 15:08:00,
2013-05-26 10:13:00,45.7,35.0,30.20,East,90,5.4,5.8,66,0.24,RA,OVC,0.56,WeatherDisplay:10.37,2013-05-26 15:13:00,
2013-05-26 10:18:00,45.7,35.0,30.19,East,90,5.4,5.8,66,0.23,RA,OVC,0.57,WeatherDisplay:10.37,2013-05-26 15:18:00,
2013-05-26 10:23:00,45.7,35.0,30.19,East,90,5.4,5.8,66,0.22,RA,OVC,0.59,WeatherDisplay:10.37,2013-05-26 15:23:00,
2013-05-26 10:28:00,45.7,35.0,30.18,East,90,5.4,5.8,66,0.23,RA,OVC,0.61,WeatherDisplay:10.37,2013-05-26 15:28:00,
2013-05-26 10:33:00,45.7,34.6,30.18,East,90,5.4,5.8,65,0.22,RA,OVC,0.62,WeatherDisplay:10.37,2013-05-26 15:33:00,
2013-05-26 10:38:00,45.7,34.6,30.17,East,90,5.4,5.8,65,0.22,RA,OVC,0.63,WeatherDisplay:10.37,2013-05-26 15:38:00,
2013-05-26 10:43:00,46.0,34.9,30.16,East,90,5.4,5.8,65,0.21,RA,OVC,0.64,WeatherDisplay:10.37,2013-05-26 15:43:00,
2013-05-26 10:48:00,46.0,34.9,30.16,East,90,5.4,5.8,65,0.18,RA,OVC,0.65,WeatherDisplay:10.37,2013-05-26 15:48:00,
2013-05-26 10:53:00,46.0,35.3,30.16,East,90,5.4,5.8,66,0.17,RA,OVC,0.65,WeatherDisplay:10.37,2013-05-26 15:53:00,
2013-05-26 10:58:00,46.0,35.7,30.17,East,90,5.4,5.8,67,0.17,RA,OVC,0.66,WeatherDisplay:10.37,2013-05-26 15:58:00,
2013-05-26 11:03:00,46.0,35.3,30.18,East,90,5.4,5.8,66,0.15,RA,OVC,0.67,WeatherDisplay:10.37,2013-05-26 16:03:00,
2013-05-26 11:08:00,46.0,35.3,30.18,East,90,5.4,5.8,66,0.16,RA,OVC,0.69,WeatherDisplay:10.37,2013-05-26 16:08:00,
2013-05-26 11:13:00,46.2,35.1,30.18,East,90,5.4,5.8,65,0.14,RA,OVC,0.70,WeatherDisplay:10.37,2013-05-26 16:13:00,
2013-05-26 11:18:00,46.4,35.3,30.18,East,90,5.4,5.8,65,0.14,RA,OVC,0.71,WeatherDisplay:10.37,2013-05-26 16:18:00,
2013-05-26 11:23:00,46.6,35.4,30.18,East,90,5.4,5.8,65,0.13,RA,OVC,0.72,WeatherDisplay:10.37,2013-05-26 16:23:00,
2013-05-26 11:28:00,46.6,35.8,30.17,East,90,5.4,5.8,66,0.12,RA,OVC,0.72,WeatherDisplay:10.37,2013-05-26 16:28:00,
2013-05-26 11:33:00,46.6,35.8,30.15,East,90,5.4,5.8,66,0.11,RA,OVC,0.73,WeatherDisplay:10.37,2013-05-26 16:33:00,
2013-05-26 11:38:00,46.4,35.3,30.11,East,90,5.4,5.8,65,0.12,RA,OVC,0.76,WeatherDisplay:10.37,2013-05-26 16:38:00,
2013-05-26 11:43:00,46.6,35.4,30.08,East,90,5.4,5.8,65,0.13,RA,OVC,0.78,WeatherDisplay:10.37,2013-05-26 16:43:00,
2013-05-26 11:48:00,46.6,35.0,30.04,East,90,5.4,5.8,64,0.15,RA,OVC,0.79,WeatherDisplay:10.37,2013-05-26 16:48:00,
2013-05-26 11:53:00,46.8,35.2,30.02,East,90,5.4,5.8,64,0.15,RA,OVC,0.80,WeatherDisplay:10.37,2013-05-26 16:53:00,
2013-05-26 11:58:00,47.1,35.6,30.02,SE,135,41.2,41.4,64,0.15,RA,OVC,0.81,WeatherDisplay:10.37,2013-05-26 16:58:00,
2013-05-26 12:03:00,47.3,35.7,30.03,ESE,112,34.6,34.6,64,0.14,RA,OVC,0.81,WeatherDisplay:10.37,2013-05-26 17:03:00,
2013-05-26 12:08:00,47.5,35.5,30.05,ESE,112,23.0,29.9,63,0.13,RA,OVC,0.82,WeatherDisplay:10.37,2013-05-26 17:08:00,
2013-05-26 12:13:00,47.8,35.8,30.06,ESE,112,18.7,20.7,63,0.12,RA,OVC,0.82,WeatherDisplay:10.37,2013-05-26 17:13:00,
2013-05-26 12:18:00,47.8,36.2,30.07,ESE,112,16.1,25.3,64,0.11,,OVC,0.82,WeatherDisplay:10.37,2013-05-26 17:18:00,
2013-05-26 12:23:00,48.0,36.4,30.10,ESE,112,10.7,13.8,64,0.11,,OVC,0.82,WeatherDisplay:10.37,2013-05-26 17:23:00,
2013-05-26 12:28:00,48.4,36.4,30.11,ESE,112,8.7,11.5,63,0.10,,OVC,0.82,WeatherDisplay:10.37,2013-05-26 17:28:00,
2013-05-26 12:33:00,48.7,36.7,30.10,ESE,112,13.2,13.2,63,0.09,,OVC,0.82,WeatherDisplay:10.37,2013-05-26 17:33:00,
2013-05-26 12:38:00,49.1,37.4,30.08,East,90,13.9,13.9,64,0.07,,OVC,0.82,WeatherDisplay:10.37,2013-05-26 17:38:00,
2013-05-26 12:43:00,49.3,37.6,30.07,East,90,15.0,18.4,64,0.05,,OVC,0.82,WeatherDisplay:10.37,2013-05-26 17:43:00,
2013-05-26 12:48:00,50.0,38.3,30.08,East,90,12.3,18.4,64,0.03,,OVC,0.82,WeatherDisplay:10.37,2013-05-26 17:48:00,
2013-05-26 12:53:00,50.2,38.5,30.09,ESE,112,6.7,13.8,64,0.02,,OVC,0.82,WeatherDisplay:10.37,2013-05-26 17:53:00,
2013-05-26 12:58:00,50.2,38.5,30.09,East,90,15.0,15.0,64,0.01,,OVC,0.82,WeatherDisplay:10.37,2013-05-26 17:58:00,
2013-05-26 13:03:00,50.4,38.6,30.09,East,90,16.6,18.4,64,0.01,,OVC,0.82,WeatherDisplay:10.37,2013-05-26 18:03:00,
2013-05-26 13:08:00,50.4,38.6,30.09,East,90,11.6,13.8,64,0.00,,OVC,0.82,WeatherDisplay:10.37,2013-05-26 18:08:00,
2013-05-26 13:13:00,50.7,39.0,30.09,East,90,15.0,15.0,64,0.00,,OVC,0.82,WeatherDisplay:10.37,2013-05-26 18:13:00,
2013-05-26 13:18:00,51.4,39.7,30.09,East,90,19.2,19.2,64,0.00,,OVC,0.82,WeatherDisplay:10.37,2013-05-26 18:18:00,
2013-05-26 13:23:00,52.0,40.2,30.09,ESE,112,16.8,16.8,64,0.00,,OVC,0.82,WeatherDisplay:10.37,2013-05-26 18:23:00,
2013-05-26 13:28:00,52.5,41.1,30.09,ESE,112,14.7,15.0,65,0.00,,OVC,0.82,WeatherDisplay:10.37,2013-05-26 18:28:00,
2013-05-26 13:34:00,53.1,42.0,30.09,East,90,13.5,16.1,66,0.00,,OVC,0.82,WeatherDisplay:10.37,2013-05-26 18:34:00,
2013-05-26 13:39:00,53.2,42.2,30.08,East,90,17.9,17.9,66,0.00,,OVC,0.82,WeatherDisplay:10.37,2013-05-26 18:39:00,
2013-05-26 13:44:00,53.8,42.3,30.08,East,90,10.5,16.1,65,0.00,,OVC,0.82,WeatherDisplay:10.37,2013-05-26 18:44:00,
2013-05-26 13:49:00,54.0,43.2,30.08,East,90,12.8,15.0,67,0.00,,OVC,0.82,WeatherDisplay:10.37,2013-05-26 18:49:00,
2013-05-26 13:54:00,53.6,43.7,30.09,East,90,17.9,20.7,69,0.00,,OVC,0.82,WeatherDisplay:10.37,2013-05-26 18:54:00,
2013-05-26 13:59:00,53.1,43.5,30.10,East,90,10.5,11.5,70,0.00,,OVC,0.82,WeatherDisplay:10.37,2013-05-26 18:59:00,
2013-05-26 14:04:00,52.9,43.4,30.11,East,90,8.5,10.4,70,0.00,,OVC,0.82,WeatherDisplay:10.37,2013-05-26 19:04:00,
2013-05-26 14:09:00,52.7,43.2,30.13,ESE,112,9.9,9.9,70,0.00,,OVC,0.82,WeatherDisplay:10.37,2013-05-26 19:09:00,
2013-05-26 14:14:00,52.5,43.0,30.12,East,90,10.0,10.0,70,0.00,,OVC,0.82,WeatherDisplay:10.37,2013-05-26 19:14:00,
2013-05-26 14:19:00,52.7,43.2,30.13,East,90,5.9,10.4,70,0.00,,OVC,0.82,WeatherDisplay:10.37,2013-05-26 19:19:00,
2013-05-26 14:24:00,52.5,43.4,30.14,East,90,6.7,6.9,71,0.00,,OVC,0.82,WeatherDisplay:10.37,2013-05-26 19:24:00,
2013-05-26 14:29:00,52.7,43.2,30.14,ESE,112,9.0,9.2,70,0.00,,OVC,0.82,WeatherDisplay:10.37,2013-05-26 19:29:00,
2013-05-26 14:34:00,52.5,43.8,30.14,East,90,6.0,8.1,72,0.00,,OVC,0.82,WeatherDisplay:10.37,2013-05-26 19:34:00,
2013-05-26 14:39:00,52.5,43.4,30.14,ESE,112,8.7,8.7,71,0.00,,OVC,0.82,WeatherDisplay:10.37,2013-05-26 19:39:00,
2013-05-26 14:44:00,52.5,43.4,30.14,East,90,6.9,8.1,71,0.00,,OVC,0.82,WeatherDisplay:10.37,2013-05-26 19:44:00,
2013-05-26 14:49:00,52.5,43.4,30.14,ESE,112,7.8,7.8,71,0.00,,OVC,0.82,WeatherDisplay:10.37,2013-05-26 19:49:00,
2013-05-26 14:54:00,52.5,43.0,30.13,ENE,68,6.4,6.9,70,0.00,,OVC,0.82,WeatherDisplay:10.37,2013-05-26 19:54:00,
2013-05-26 14:59:00,52.5,43.0,30.13,ENE,68,8.5,10.4,70,0.00,,OVC,0.82,WeatherDisplay:10.37,2013-05-26 19:59:00,
2013-05-26 15:04:00,52.5,43.0,30.12,East,90,9.7,11.5,70,0.00,,OVC,0.82,WeatherDisplay:10.37,2013-05-26 20:04:00,
2013-05-26 15:09:00,52.7,42.8,30.11,East,90,12.1,12.1,69,0.00,,OVC,0.82,WeatherDisplay:10.37,2013-05-26 20:09:00,
2013-05-26 15:14:00,52.9,43.0,30.12,East,90,12.3,12.7,69,0.00,,OVC,0.82,WeatherDisplay:10.37,2013-05-26 20:14:00,
2013-05-26 15:19:00,52.9,43.0,30.13,East,90,8.3,9.2,69,0.00,,OVC,0.82,WeatherDisplay:10.37,2013-05-26 20:19:00,
2013-05-26 15:24:00,52.9,43.4,30.13,ESE,112,9.2,10.4,70,0.00,,OVC,0.82,WeatherDisplay:10.37,2013-05-26 20:24:00,
2013-05-26 15:29:00,52.9,43.4,30.13,East,90,8.5,9.2,70,0.00,,OVC,0.82,WeatherDisplay:10.37,2013-05-26 20:29:00,
2013-05-26 15:34:00,52.9,43.4,30.13,East,90,14.3,14.3,70,0.00,,OVC,0.82,WeatherDisplay:10.37,2013-05-26 20:34:00,
2013-05-26 15:39:00,52.9,43.4,30.12,East,90,8.5,9.2,70,0.00,,OVC,0.82,WeatherDisplay:10.37,2013-05-26 20:39:00,
2013-05-26 15:44:00,53.1,43.5,30.12,East,90,7.8,8.1,70,0.00,,OVC,0.82,WeatherDisplay:10.37,2013-05-26 20:44:00,
2013-05-26 15:49:00,53.1,43.5,30.12,East,90,8.1,11.5,70,0.00,,OVC,0.82,WeatherDisplay:10.37,2013-05-26 20:49:00,
2013-05-26 15:54:00,53.1,43.5,30.11,East,90,7.4,7.4,70,0.00,,OVC,0.82,WeatherDisplay:10.37,2013-05-26 20:54:00,
2013-05-26 15:59:00,53.2,43.7,30.10,East,90,10.5,12.7,70,0.00,,OVC,0.82,WeatherDisplay:10.37,2013-05-26 20:59:00,
2013-05-26 16:04:00,53.2,44.1,30.10,ESE,112,8.1,10.4,71,0.00,,OVC,0.82,WeatherDisplay:10.37,2013-05-26 21:04:00,
2013-05-26 16:09:00,53.2,43.7,30.10,ENE,68,6.9,9.2,70,0.00,,OVC,0.82,WeatherDisplay:10.37,2013-05-26 21:09:00,
2013-05-26 16:14:00,53.2,43.7,30.10,East,90,5.2,8.1,70,0.00,,OVC,0.82,WeatherDisplay:10.37,2013-05-26 21:14:00,
2013-05-26 16:19:00,53.4,44.2,30.10,ENE,68,13.2,13.2,71,0.00,,OVC,0.82,WeatherDisplay:10.37,2013-05-26 21:19:00,
2013-05-26 16:24:00,53.2,44.1,30.10,East,90,13.7,13.8,71,0.00,,OVC,0.82,WeatherDisplay:10.37,2013-05-26 21:24:00,
2013-05-26 16:29:00,53.2,44.1,30.10,East,90,8.7,9.2,71,0.00,,OVC,0.82,WeatherDisplay:10.37,2013-05-26 21:29:00,
2013-05-26 16:34:00,53.2,44.1,30.09,East,90,10.7,10.7,71,0.00,,OVC,0.82,WeatherDisplay:10.37,2013-05-26 21:34:00,
2013-05-26 16:39:00,53.4,43.9,30.08,East,90,7.6,10.4,70,0.00,,OVC,0.82,WeatherDisplay:10.37,2013-05-26 21:39:00,
2013-05-26 16:44:00,53.4,43.9,30.09,East,90,10.0,12.7,70,0.00,,OVC,0.82,WeatherDisplay:10.37,2013-05-26 21:44:00,
2013-05-26 16:49:00,53.4,43.9,30.08,ESE,112,10.2,10.4,70,0.00,,OVC,0.82,WeatherDisplay:10.37,2013-05-26 21:49:00,
2013-05-26 16:54:00,53.2,43.7,30.07,East,90,11.6,13.8,70,0.00,,OVC,0.82,WeatherDisplay:10.37,2013-05-26 21:54:00,
2013-05-26 16:59:00,53.2,43.3,30.07,East,90,9.7,9.7,69,0.00,,OVC,0.82,WeatherDisplay:10.37,2013-05-26 21:59:00,
2013-05-26 17:04:00,53.2,43.3,30.07,East,90,12.3,12.7,69,0.00,,OVC,0.82,WeatherDisplay:10.37,2013-05-26 22:04:00,
2013-05-26 17:09:00,53.2,43.3,30.06,East,90,12.5,15.0,69,0.00,,OVC,0.82,WeatherDisplay:10.37,2013-05-26 22:09:00,
2013-05-26 17:14:00,53.2,42.9,30.05,East,90,12.3,16.1,68,0.00,,OVC,0.82,WeatherDisplay:10.37,2013-05-26 22:14:00,
2013-05-26 17:19:00,53.4,43.1,30.04,East,90,12.5,12.7,68,0.00,,OVC,0.82,WeatherDisplay:10.37,2013-05-26 22:19:00,
2013-05-26 17:24:00,53.4,43.1,30.03,East,90,13.9,13.9,68,0.00,,OVC,0.82,WeatherDisplay:10.37,2013-05-26 22:24:00,
2013-05-26 17:29:00,53.4,43.1,30.03,ESE,112,11.4,12.7,68,0.00,,OVC,0.82,WeatherDisplay:10.37,2013-05-26 22:29:00,
2013-05-26 17:34:00,53.4,43.1,30.02,East,90,19.2,19.2,68,0.00,,OVC,0.82,WeatherDisplay:10.37,2013-05-26 22:34:00,
2013-05-26 17:39:00,53.4,43.1,30.02,East,90,15.2,15.2,68,0.00,,OVC,0.82,WeatherDisplay:10.37,2013-05-26 22:39:00,
2013-05-26 17:44:00,53.4,43.1,30.05,East,90,12.8,12.8,68,0.00,,OVC,0.82,WeatherDisplay:10.37,2013-05-26 22:44:00,
2013-05-26 17:49:00,53.4,43.1,30.05,East,90,16.8,16.8,68,0.00,,OVC,0.82,WeatherDisplay:10.37,2013-05-26 22:49:00,
2013-05-26 17:54:00,53.4,43.1,30.05,East,90,9.9,12.7,68,0.00,,OVC,0.82,WeatherDisplay:10.37,2013-05-26 22:54:00,
2013-05-26 17:59:00,53.4,43.1,30.04,East,90,12.8,12.8,68,0.00,,OVC,0.82,WeatherDisplay:10.37,2013-05-26 22:59:00,
2013-05-26 18:04:00,53.4,43.1,30.04,East,90,12.8,12.8,68,0.00,,OVC,0.82,WeatherDisplay:10.37,2013-05-26 23:04:00,
2013-05-26 18:09:00,53.4,43.1,30.04,ESE,112,9.2,13.8,68,0.00,,OVC,0.82,WeatherDisplay:10.37,2013-05-26 23:09:00,
2013-05-26 18:14:00,53.4,43.1,30.04,East,90,11.4,12.7,68,0.00,,OVC,0.82,WeatherDisplay:10.37,2013-05-26 23:14:00,
2013-05-26 18:19:00,53.6,43.3,30.04,East,90,13.5,13.5,68,0.00,,OVC,0.82,WeatherDisplay:10.37,2013-05-26 23:19:00,
2013-05-26 18:24:00,53.6,43.3,30.04,East,90,11.8,12.7,68,0.00,,OVC,0.82,WeatherDisplay:10.37,2013-05-26 23:24:00,
2013-05-26 18:29:00,53.6,43.3,30.05,East,90,8.3,10.4,68,0.00,,OVC,0.82,WeatherDisplay:10.37,2013-05-26 23:29:00,
2013-05-26 18:34:00,53.6,43.3,30.06,East,90,12.5,12.5,68,0.00,,OVC,0.82,WeatherDisplay:10.37,2013-05-26 23:34:00,
2013-05-26 18:39:00,53.6,43.3,30.07,ESE,112,8.7,9.2,68,0.00,,OVC,0.82,WeatherDisplay:10.37,2013-05-26 23:39:00,
2013-05-26 18:44:00,53.6,43.7,30.07,ENE,68,8.3,10.4,69,0.00,,OVC,0.82,WeatherDisplay:10.37,2013-05-26 23:44:00,
2013-05-26 18:49:00,53.6,43.7,30.08,ESE,112,7.1,10.4,69,0.00,,OVC,0.82,WeatherDisplay:10.37,2013-05-26 23:49:00,
2013-05-26 18:54:00,53.6,43.7,30.08,ESE,112,8.1,8.1,69,0.00,,OVC,0.82,WeatherDisplay:10.37,2013-05-26 23:54:00,
2013-05-26 18:59:00,53.6,43.7,30.08,East,90,7.8,9.2,69,0.00,,OVC,0.82,WeatherDisplay:10.37,2013-05-26 23:59:00,
2013-05-26 19:04:00,53.6,43.7,30.08,East,90,8.5,9.2,69,0.00,,OVC,0.82,WeatherDisplay:10.37,2013-05-27 00:04:00,
2013-05-26 19:09:00,53.6,43.7,30.08,East,90,8.1,8.1,69,0.00,,OVC,0.82,WeatherDisplay:10.37,2013-05-27 00:09:00,
2013-05-26 19:14:00,53.6,43.7,30.06,ESE,112,6.2,10.4,69,0.00,,OVC,0.82,WeatherDisplay:10.37,2013-05-27 00:14:00,
2013-05-26 19:19:00,53.6,43.3,30.06,ESE,112,7.6,8.1,68,0.00,,OVC,0.82,WeatherDisplay:10.37,2013-05-27 00:19:00,
2013-05-26 19:24:00,53.6,43.3,30.07,East,90,5.4,10.4,68,0.00,,OVC,0.82,WeatherDisplay:10.37,2013-05-27 00:24:00,
2013-05-26 19:29:00,53.6,43.3,30.06,ESE,112,9.9,10.4,68,0.00,,OVC,0.82,WeatherDisplay:10.37,2013-05-27 00:29:00,
2013-05-26 19:35:00,53.6,43.3,30.06,East,90,9.2,9.2,68,0.00,,OVC,0.82,WeatherDisplay:10.37,2013-05-27 00:35:00,
2013-05-26 19:40:00,53.6,42.9,30.05,East,90,8.5,8.5,67,0.00,,OVC,0.82,WeatherDisplay:10.37,2013-05-27 00:40:00,
2013-05-26 19:45:00,53.6,42.9,30.06,ESE,112,7.1,9.2,67,0.00,,OVC,0.82,WeatherDisplay:10.37,2013-05-27 00:45:00,
2013-05-26 19:50:00,53.6,42.9,30.06,East,90,9.7,9.7,67,0.00,,OVC,0.82,WeatherDisplay:10.37,2013-05-27 00:50:00,
2013-05-26 19:55:00,53.6,42.9,30.06,East,90,4.5,8.1,67,0.00,,OVC,0.82,WeatherDisplay:10.37,2013-05-27 00:55:00,
2013-05-26 20:00:00,53.6,42.9,30.06,ENE,68,8.3,8.3,67,0.00,,OVC,0.82,WeatherDisplay:10.37,2013-05-27 01:00:00,
2013-05-26 20:05:00,53.6,42.9,30.06,East,90,8.3,8.3,67,0.00,,OVC,0.82,WeatherDisplay:10.37,2013-05-27 01:05:00,
2013-05-26 20:10:00,53.6,42.9,30.06,ENE,68,6.9,10.4,67,0.00,,OVC,0.82,WeatherDisplay:10.37,2013-05-27 01:10:00,
2013-05-26 20:15:00,53.6,42.5,30.06,ESE,112,8.3,8.3,66,0.00,,OVC,0.82,WeatherDisplay:10.37,2013-05-27 01:15:00,
2013-05-26 20:20:00,53.6,42.5,30.06,ESE,112,8.3,8.3,66,0.00,,OVC,0.82,WeatherDisplay:10.37,2013-05-27 01:20:00,
2013-05-26 20:25:00,53.6,42.5,30.06,ESE,112,7.8,9.2,66,0.00,,OVC,0.82,WeatherDisplay:10.37,2013-05-27 01:25:00,
2013-05-26 20:30:00,53.6,42.5,30.05,East,90,9.2,9.2,66,0.00,,OVC,0.82,WeatherDisplay:10.37,2013-05-27 01:30:00,
2013-05-26 20:35:00,53.6,42.5,30.05,East,90,13.7,13.7,66,0.00,,OVC,0.82,WeatherDisplay:10.37,2013-05-27 01:35:00,
2013-05-26 20:40:00,53.6,42.5,30.04,East,90,6.9,11.5,66,0.00,,OVC,0.82,WeatherDisplay:10.37,2013-05-27 01:40:00,
2013-05-26 20:45:00,53.6,42.5,30.04,East,90,11.8,11.8,66,0.00,,OVC,0.82,WeatherDisplay:10.37,2013-05-27 01:45:00,
2013-05-26 20:50:00,53.6,42.5,30.03,NE,45,12.1,12.1,66,0.00,,OVC,0.82,WeatherDisplay:10.37,2013-05-27 01:50:00,
2013-05-26 20:55:00,53.6,42.1,30.03,ENE,68,11.6,11.6,65,0.00,,OVC,0.82,WeatherDisplay:10.37,2013-05-27 01:55:00,
2013-05-26 21:00:00,53.6,42.1,30.02,East,90,9.7,11.5,65,0.00,,OVC,0.82,WeatherDisplay:10.37,2013-05-27 02:00:00,
2013-05-26 21:05:00,53.6,42.1,30.02,East,90,10.5,13.8,65,0.00,,OVC,0.82,WeatherDisplay:10.37,2013-05-27 02:05:00,
2013-05-26 21:10:00,53.6,42.1,30.02,East,90,10.5,17.3,65,0.00,,OVC,0.82,WeatherDisplay:10.37,2013-05-27 02:10:00,
2013-05-26 21:15:00,53.6,41.7,30.03,East,90,9.2,11.5,64,0.00,,OVC,0.82,WeatherDisplay:10.37,2013-05-27 02:15:00,
2013-05-26 21:20:00,53.6,41.7,30.04,East,90,7.4,12.7,64,0.00,,OVC,0.82,WeatherDisplay:10.37,2013-05-27 02:20:00,
2013-05-26 21:25:00,53.6,41.7,30.04,SE,135,8.3,11.5,64,0.00,,OVC,0.82,WeatherDisplay:10.37,2013-05-27 02:25:00,
2013-05-26 21:30:00,53.6,41.7,30.05,East,90,8.1,10.4,64,0.00,,OVC,0.82,WeatherDisplay:10.37,2013-05-27 02:30:00,
2013-05-26 21:35:00,53.6,41.7,30.05,ESE,112,9.7,11.5,64,0.00,,OVC,0.82,WeatherDisplay:10.37,2013-05-27 02:35:00,
2013-05-26 21:40:00,53.8,41.9,30.06,ESE,112,6.2,9.2,64,0.00,,OVC,0.82,WeatherDisplay:10.37,2013-05-27 02:40:00,
2013-05-26 21:45:00,53.8,41.9,30.06,ENE,68,6.9,9.2,64,0.00,,OVC,0.82,WeatherDisplay:10.37,2013-05-27 02:45:00,
2013-05-26 21:50:00,53.8,41.9,30.06,East,90,6.2,8.1,64,0.00,,OVC,0.82,WeatherDisplay:10.37,2013-05-27 02:50:00,
2013-05-26 21:55:00,54.0,42.1,30.06,ENE,68,10.0,10.4,64,0.00,,OVC,0.82,WeatherDisplay:10.37,2013-05-27 02:55:00,
2013-05-26 22:00:00,53.8,41.9,30.06,ENE,68,8.5,8.5,64,0.00,,OVC,0.82,WeatherDisplay:10.37,2013-05-27 03:00:00,
2013-05-26 22:05:00,54.0,42.1,30.06,East,90,11.6,11.6,64,0.00,,OVC,0.82,WeatherDisplay:10.37,2013-05-27 03:05:00,
2013-05-26 22:10:00,54.0,42.1,30.06,East,90,10.7,10.7,64,0.00,,OVC,0.82,WeatherDisplay:10.37,2013-05-27 03:10:00,
2013-05-26 22:15:00,54.0,42.1,30.06,East,90,6.4,11.5,64,0.00,,OVC,0.82,WeatherDisplay:10.37,2013-05-27 03:15:00,
2013-05-26 22:20:00,54.0,42.1,30.06,East,90,6.2,6.2,64,0.00,,OVC,0.82,WeatherDisplay:10.37,2013-05-27 03:20:00,
2013-05-26 22:25:00,54.0,42.1,30.06,ENE,68,7.4,8.1,64,0.00,,OVC,0.82,WeatherDisplay:10.37,2013-05-27 03:25:00,
2013-05-26 22:30:00,54.0,42.1,30.07,NNE,22,7.6,7.6,64,0.00,,OVC,0.82,WeatherDisplay:10.37,2013-05-27 03:30:00,
2013-05-26 22:35:00,54.0,42.1,30.06,ESE,112,5.6,8.1,64,0.00,,OVC,0.82,WeatherDisplay:10.37,2013-05-27 03:35:00,
2013-05-26 22:40:00,54.0,42.1,30.06,ESE,112,7.4,7.4,64,0.00,,OVC,0.82,WeatherDisplay:10.37,2013-05-27 03:40:00,
2013-05-26 22:45:00,54.0,42.1,30.06,ESE,112,5.9,6.9,64,0.00,,OVC,0.82,WeatherDisplay:10.37,2013-05-27 03:45:00,
2013-05-26 22:50:00,54.0,42.1,30.06,ESE,112,6.9,8.1,64,0.00,,OVC,0.82,WeatherDisplay:10.37,2013-05-27 03:50:00,
2013-05-26 22:55:00,54.0,42.1,30.06,ESE,112,10.7,10.7,64,0.00,,OVC,0.82,WeatherDisplay:10.37,2013-05-27 03:55:00,
2013-05-26 23:00:00,54.0,42.1,30.05,ESE,112,7.6,8.1,64,0.00,,OVC,0.82,WeatherDisplay:10.37,2013-05-27 04:00:00,
2013-05-26 23:01:00,54.0,42.1,30.05,ESE,112,7.6,8.1,64,0.00,,OVC,0.82,WeatherDisplay:10.37,2013-05-27 04:01:00,
2013-05-26 23:06:00,54.0,42.1,30.05,SE,135,5.2,8.1,64,0.00,,OVC,0.82,WeatherDisplay:10.37,2013-05-27 04:06:00,
2013-05-26 23:11:00,54.0,42.1,30.04,East,90,6.2,8.1,64,0.00,,OVC,0.82,WeatherDisplay:10.37,2013-05-27 04:11:00,
2013-05-26 23:16:00,54.0,42.1,30.04,ENE,68,7.1,10.4,64,0.00,,OVC,0.82,WeatherDisplay:10.37,2013-05-27 04:16:00,
2013-05-26 23:21:00,54.0,42.1,30.03,ESE,112,7.8,8.1,64,0.00,,OVC,0.82,WeatherDisplay:10.37,2013-05-27 04:21:00,
2013-05-26 23:26:00,54.0,42.1,30.03,ESE,112,9.9,9.9,64,0.00,,OVC,0.82,WeatherDisplay:10.37,2013-05-27 04:26:00,
2013-05-26 23:31:00,54.0,42.1,30.02,ESE,112,6.9,9.2,64,0.00,,OVC,0.82,WeatherDisplay:10.37,2013-05-27 04:31:00,
2013-05-26 23:36:00,54.0,41.6,30.02,East,90,8.1,9.2,63,0.00,,OVC,0.82,WeatherDisplay:10.37,2013-05-27 04:36:00,
2013-05-26 23:41:00,54.0,41.6,30.02,East,90,7.8,8.1,63,0.00,,OVC,0.82,WeatherDisplay:10.37,2013-05-27 04:41:00,
2013-05-26 23:46:00,54.0,41.6,30.02,East,90,6.2,10.4,63,0.00,,OVC,0.82,WeatherDisplay:10.37,2013-05-27 04:46:00,
2013-05-26 23:51:00,54.0,41.6,30.02,East,90,7.6,7.6,63,0.00,,OVC,0.82,WeatherDisplay:10.37,2013-05-27 04:51:00,
2013-05-26 23:56:00,54.1,41.8,30.03,East,90,5.6,9.2,63,0.00,,OVC,0.82,WeatherDisplay:10.37,2013-05-27 04:56:00,